createdAt,value
2022-07-28T00:02:53.455Z,10.1
2022-07-28T00:07:53.676Z,10.1
2022-07-28T00:12:52.771Z,9.9
2022-07-28T00:17:53.774Z,9.9
2022-07-28T00:22:52.918Z,9.8
2022-07-28T00:27:52.967Z,9.8
2022-07-28T00:32:53.239Z,9.7
2022-07-28T00:37:54.537Z,9.7
2022-07-28T00:42:53.572Z,9.6
2022-07-28T00:47:52.929Z,9.6
2022-07-28T00:52:53.159Z,9.5
2022-07-28T00:57:53.420Z,9.5
2022-07-28T01:02:54.123Z,9.4
2022-07-28T01:07:53.440Z,9.4
2022-07-28T01:12:53.744Z,9.2
2022-07-28T01:17:52.829Z,9.2
2022-07-28T01:22:53.078Z,9.2
2022-07-28T01:27:53.207Z,9.2
2022-07-28T01:32:53.311Z,9.2
2022-07-28T01:37:53.684Z,9.2
2022-07-28T01:42:52.844Z,9.1
2022-07-28T01:47:53.794Z,9.1
2022-07-28T01:52:53.108Z,9.3
2022-07-28T01:57:53.501Z,9.3
2022-07-28T02:02:54.756Z,9.7
2022-07-28T02:07:52.950Z,9.7
2022-07-28T02:12:53.170Z,9.8
2022-07-28T02:17:53.242Z,9.8
2022-07-28T02:22:53.500Z,10
2022-07-28T02:27:53.611Z,10
2022-07-28T02:32:54.374Z,10
2022-07-28T02:37:53.478Z,10
2022-07-28T02:42:52.973Z,10.1
2022-07-28T02:47:53.102Z,10.1
2022-07-28T02:52:53.480Z,10.1
2022-07-28T02:57:57.167Z,10.1
2022-07-28T03:02:53.015Z,10
2022-07-28T03:07:53.396Z,10
2022-07-28T03:12:53.843Z,10.1
2022-07-28T03:17:53.396Z,10.1
2022-07-28T03:22:53.128Z,10.2
2022-07-28T03:27:53.732Z,10.2
2022-07-28T03:32:53.187Z,10.3
2022-07-28T03:37:53.445Z,10.3
2022-07-28T03:42:53.830Z,10.5
2022-07-28T03:47:53.069Z,10.5
2022-07-28T03:52:53.790Z,10.7
2022-07-28T03:57:53.024Z,10.7
2022-07-28T04:02:53.738Z,10.8
2022-07-28T04:07:53.161Z,10.8
2022-07-28T04:12:53.500Z,11
2022-07-28T04:17:52.976Z,11
2022-07-28T04:22:53.181Z,11.2
2022-07-28T04:27:53.450Z,11.2
2022-07-28T04:32:53.731Z,11.5
2022-07-28T04:37:52.982Z,11.5
2022-07-28T04:42:53.261Z,12
2022-07-28T04:47:53.487Z,12
2022-07-28T04:52:53.759Z,12.4
2022-07-28T04:57:54.030Z,12.4
2022-07-28T05:02:53.159Z,12.8
2022-07-28T05:07:53.084Z,12.8
2022-07-28T05:12:53.453Z,13.2
2022-07-28T05:17:53.598Z,13.2
2022-07-28T05:22:54.007Z,13.3
2022-07-28T05:27:53.533Z,13.3
2022-07-28T05:32:53.885Z,13.8
2022-07-28T05:37:53.264Z,13.8
2022-07-28T05:42:53.150Z,13.8
2022-07-28T05:47:53.378Z,13.8
2022-07-28T05:52:53.511Z,13.9
2022-07-28T05:57:53.589Z,13.9
2022-07-28T06:02:53.103Z,13.9
2022-07-28T06:07:53.275Z,13.9
2022-07-28T06:12:53.391Z,14.1
2022-07-28T06:17:53.466Z,14.1
2022-07-28T06:22:53.771Z,14.2
2022-07-28T06:27:53.988Z,14.2
2022-07-28T06:32:53.387Z,14.5
2022-07-28T06:37:55.251Z,14.5
2022-07-28T06:42:53.381Z,14.6
2022-07-28T06:47:53.835Z,14.6
2022-07-28T06:52:53.981Z,14.8
2022-07-28T06:57:53.330Z,14.8
2022-07-28T07:02:53.495Z,14.8
2022-07-28T07:07:53.892Z,14.8
2022-07-28T07:12:53.149Z,14.9
2022-07-28T07:17:53.406Z,14.9
2022-07-28T07:22:53.666Z,15.1
2022-07-28T07:27:53.832Z,15.1
2022-07-28T07:32:53.866Z,15.2
2022-07-28T07:37:53.989Z,15.2
2022-07-28T07:42:53.214Z,15.5
2022-07-28T07:47:53.388Z,15.5
2022-07-28T07:52:53.532Z,15.7
2022-07-28T07:57:53.784Z,15.7
2022-07-28T08:02:53.988Z,15.7
2022-07-28T08:07:53.309Z,15.7
2022-07-28T08:12:53.466Z,15.8
2022-07-28T08:17:53.640Z,15.8
2022-07-28T08:22:53.974Z,15.8
2022-07-28T08:27:53.249Z,15.8
2022-07-28T08:32:57.522Z,16.4
2022-07-28T08:37:53.747Z,16.4
2022-07-28T08:42:53.076Z,16.1
2022-07-28T08:48:10.252Z,16.1
2022-07-28T08:52:53.753Z,16.4
2022-07-28T08:57:58.844Z,16.4
2022-07-28T09:02:53.502Z,16.6
2022-07-28T09:07:56.094Z,16.6
2022-07-28T09:12:54.084Z,16.8
2022-07-28T09:17:53.223Z,16.8
2022-07-28T09:22:54.096Z,17.2
2022-07-28T09:27:53.777Z,17.2
2022-07-28T09:32:54.160Z,16.7
2022-07-28T09:37:53.424Z,16.7
2022-07-28T09:42:53.777Z,17.2
2022-07-28T09:47:55.137Z,17.2
2022-07-28T09:52:53.512Z,17.4
2022-07-28T09:57:54.108Z,17.4
2022-07-28T10:02:53.482Z,17.5
2022-07-28T10:07:53.927Z,17.5
2022-07-28T10:12:54.016Z,17.9
2022-07-28T10:17:53.354Z,17.9
2022-07-28T10:22:53.437Z,17.4
2022-07-28T10:27:53.620Z,17.4
2022-07-28T10:32:54.073Z,17.3
2022-07-28T10:37:53.252Z,17.3
2022-07-28T10:42:53.410Z,17.3
2022-07-28T10:47:54.369Z,17.3
2022-07-28T10:52:59.700Z,17.5
2022-07-28T10:58:12.593Z,17.5
2022-07-28T11:02:55.418Z,17.5
2022-07-28T11:07:54.109Z,17.5
2022-07-28T11:12:53.314Z,17.5
2022-07-28T11:17:53.734Z,17.5
2022-07-28T11:22:54.286Z,17.3
2022-07-28T11:27:53.460Z,17.3
2022-07-28T11:32:53.876Z,17.3
2022-07-28T11:37:54.038Z,17.3
2022-07-28T11:42:56.735Z,17.2
2022-07-28T11:47:53.880Z,17.2
2022-07-28T11:52:54.007Z,17.3
2022-07-28T11:57:54.211Z,17.3
2022-07-28T12:02:53.745Z,17.4
2022-07-28T12:07:54.203Z,17.4
2022-07-28T12:12:53.233Z,17.6
2022-07-28T12:17:53.346Z,17.6
2022-07-28T12:22:53.715Z,17.5
2022-07-28T12:27:55.508Z,17.5
2022-07-28T12:32:53.599Z,17.7
2022-07-28T12:37:54.049Z,17.7
2022-07-28T12:42:53.983Z,17.7
2022-07-28T12:47:54.129Z,17.7
2022-07-28T12:52:53.424Z,17.9
2022-07-28T12:57:53.536Z,17.9
2022-07-28T13:02:56.633Z,18
2022-07-28T13:07:55.431Z,18
2022-07-28T13:12:54.150Z,18.1
2022-07-28T13:17:53.440Z,18.1
2022-07-28T13:22:53.691Z,18.2
2022-07-28T13:27:56.087Z,18.2
2022-07-28T13:32:53.843Z,18
2022-07-28T13:37:54.181Z,18
2022-07-28T13:42:57.354Z,18.2
2022-07-28T13:47:53.912Z,18.2
2022-07-28T13:52:53.274Z,18.3
2022-07-28T13:57:56.920Z,18.3
2022-07-28T14:02:54.432Z,18.8
2022-07-28T14:07:53.766Z,18.8
2022-07-28T14:12:54.318Z,18.6
2022-07-28T14:17:53.889Z,18.6
2022-07-28T14:22:54.146Z,18.4
2022-07-28T14:27:53.234Z,18.4
2022-07-28T14:32:53.412Z,18.4
2022-07-28T14:38:54.919Z,18.4
2022-07-28T14:42:54.005Z,18.6
2022-07-28T14:47:53.427Z,18.6
2022-07-28T14:52:53.823Z,18.7
2022-07-28T14:57:55.470Z,18.7
2022-07-28T15:02:54.291Z,19.2
2022-07-28T15:07:53.698Z,19.2
2022-07-28T15:12:53.433Z,19.5
2022-07-28T15:17:54.089Z,19.5
2022-07-28T15:22:53.590Z,19.5
2022-07-28T15:27:53.815Z,19.5
2022-07-28T15:32:57.589Z,19.7
2022-07-28T15:37:53.926Z,19.7
2022-07-28T15:42:53.426Z,20
2022-07-28T15:47:53.661Z,20
2022-07-28T15:52:54.022Z,19.7
2022-07-28T15:57:53.502Z,19.7
2022-07-28T16:02:54.439Z,20
2022-07-28T16:07:53.985Z,20
2022-07-28T16:12:53.514Z,19.9
2022-07-28T16:17:53.597Z,19.9
2022-07-28T16:22:53.738Z,19.6
2022-07-28T16:27:54.153Z,19.6
2022-07-28T16:32:53.478Z,19.7
2022-07-28T16:37:53.751Z,19.7
2022-07-28T16:42:54.072Z,19.5
2022-07-28T16:47:54.037Z,19.5
2022-07-28T16:52:54.362Z,19.5
2022-07-28T16:57:53.546Z,19.5
2022-07-28T17:02:54.224Z,19.3
2022-07-28T17:07:54.362Z,19.3
2022-07-28T17:12:53.673Z,19.1
2022-07-28T17:17:53.824Z,19.1
2022-07-28T17:22:54.186Z,18.9
2022-07-28T17:27:54.438Z,18.9
2022-07-28T17:32:53.524Z,19.2
2022-07-28T17:37:53.884Z,19.2
2022-07-28T17:42:54.248Z,18.9
2022-07-28T17:47:54.279Z,18.9
2022-07-28T17:52:53.835Z,19
2022-07-28T17:57:53.994Z,19
2022-07-28T18:02:54.564Z,18.8
2022-07-28T18:07:59.468Z,18.8
2022-07-28T18:12:53.605Z,18.6
2022-07-28T18:17:56.276Z,18.6
2022-07-28T18:22:54.369Z,18.1
2022-07-28T18:27:53.593Z,18.1
2022-07-28T18:32:53.702Z,17.9
2022-07-28T18:37:53.891Z,17.9
2022-07-28T18:42:54.014Z,17.6
2022-07-28T18:47:53.548Z,17.6
2022-07-28T18:52:55.471Z,17.1
2022-07-28T18:57:53.839Z,17.1
2022-07-28T19:02:54.226Z,16.8
2022-07-28T19:07:53.449Z,16.8
2022-07-28T19:12:54.141Z,16.5
2022-07-28T19:18:12.368Z,16.5
2022-07-28T19:22:53.530Z,16.3
2022-07-28T19:27:53.842Z,16.3
2022-07-28T19:32:54.044Z,15.8
2022-07-28T19:37:54.381Z,15.8
2022-07-28T19:42:53.712Z,15.4
2022-07-28T19:47:53.908Z,15.4
2022-07-28T19:52:56.748Z,15.4
2022-07-28T19:57:53.794Z,15.4
2022-07-28T20:02:54.367Z,15.3
2022-07-28T20:07:54.473Z,15.3
2022-07-28T20:12:53.879Z,15.3
2022-07-28T20:17:54.224Z,15.3
2022-07-28T20:22:53.492Z,15.1
2022-07-28T20:27:53.930Z,15.1
2022-07-28T20:32:54.113Z,14.9
2022-07-28T20:37:54.262Z,14.9
2022-07-28T20:42:54.604Z,14.9
2022-07-28T20:47:54.145Z,14.9
2022-07-28T20:52:54.377Z,14.8
2022-07-28T20:57:54.307Z,14.8
2022-07-28T21:02:54.105Z,14.7
2022-07-28T21:08:16.131Z,14.7
2022-07-28T21:12:54.017Z,14.4
2022-07-28T21:17:54.167Z,14.4
2022-07-28T21:22:54.166Z,14.3
2022-07-28T21:27:54.498Z,14.3
2022-07-28T21:32:53.950Z,14.6
2022-07-28T21:37:54.093Z,14.6
2022-07-28T21:42:54.539Z,14.3
2022-07-28T21:47:53.971Z,14.3
2022-07-28T21:52:54.477Z,14.2
2022-07-28T21:57:54.445Z,14.2
2022-07-28T22:02:53.721Z,13.7
2022-07-28T22:07:53.856Z,13.7
2022-07-28T22:12:54.185Z,13.7
2022-07-28T22:17:54.310Z,13.7
2022-07-28T22:22:53.842Z,13.4
2022-07-28T22:27:53.982Z,13.4
2022-07-28T22:32:54.133Z,13.2
2022-07-28T22:37:54.202Z,13.2
2022-07-28T22:42:54.564Z,12.7
2022-07-28T22:47:53.986Z,12.7
2022-07-28T22:52:54.259Z,12.7
2022-07-28T22:57:54.455Z,12.7
2022-07-28T23:02:53.542Z,12.5
2022-07-28T23:07:59.297Z,12.5
2022-07-28T23:12:59.027Z,12.3
2022-07-28T23:17:54.213Z,12.3
2022-07-28T23:22:54.284Z,12.2
2022-07-28T23:27:54.430Z,12.2
2022-07-28T23:32:54.587Z,12
2022-07-28T23:37:53.751Z,12
2022-07-28T23:42:54.262Z,11.7
2022-07-28T23:47:59.297Z,11.7
2022-07-28T23:52:53.874Z,11.6
2022-07-28T23:57:53.947Z,11.6
